createdAt,value
2019-02-08T00:08:02.572Z,27.90
2019-02-08T00:15:48.302Z,27.90
2019-02-08T00:18:25.167Z,27.80
2019-02-08T00:36:30.772Z,29.00
2019-02-08T00:39:07.828Z,29.10
2019-02-08T00:41:45.624Z,29.10
2019-02-08T00:44:22.533Z,29.20
2019-02-08T00:46:59.542Z,29.30
2019-02-08T00:49:36.434Z,29.30
2019-02-08T00:52:13.430Z,29.40
2019-02-08T00:54:50.411Z,29.50
2019-02-08T00:57:27.418Z,29.70
2019-02-08T01:00:04.468Z,29.60
2019-02-08T01:02:42.089Z,29.80
2019-02-08T01:05:20.674Z,29.80
2019-02-08T01:07:57.627Z,29.60
2019-02-08T01:10:35.514Z,29.80
2019-02-08T01:26:11.092Z,29.70
2019-02-08T01:31:23.719Z,30.10
2019-02-08T01:39:11.685Z,30.50
2019-02-08T01:44:23.283Z,30.30
2019-02-08T01:59:55.478Z,30.50
2019-02-08T02:02:33.223Z,30.80
2019-02-08T02:05:10.887Z,30.90
2019-02-08T02:07:47.838Z,30.90
2019-02-08T02:10:35.083Z,32.60
2019-02-08T02:13:12.984Z,30.80
2019-02-08T02:15:51.272Z,30.90
2019-02-08T02:18:29.513Z,30.90
2019-02-08T02:21:08.584Z,31.20
2019-02-08T02:23:47.321Z,31.10
2019-02-08T02:26:25.654Z,30.80
2019-02-08T02:29:03.811Z,31.10
2019-02-08T02:31:40.853Z,31.20
2019-02-08T02:34:17.705Z,31.30
2019-02-08T02:36:54.921Z,31.30
2019-02-08T02:39:32.145Z,31.30
2019-02-08T02:42:15.897Z,31.30
2019-02-08T02:44:53.570Z,30.80
2019-02-08T02:47:30.520Z,31.70
2019-02-08T02:50:07.638Z,31.40
2019-02-08T02:52:44.638Z,31.50
2019-02-08T02:55:21.654Z,31.40
2019-02-08T02:57:58.764Z,31.20
2019-02-08T03:00:59.203Z,31.20
2019-02-08T03:03:36.755Z,31.30
2019-02-08T03:06:14.610Z,31.20
2019-02-08T03:08:51.667Z,31.10
2019-02-08T03:11:28.983Z,31.00
2019-02-08T03:14:06.941Z,30.90
2019-02-08T03:16:43.752Z,31.50
2019-02-08T03:19:20.748Z,30.80
2019-02-08T03:21:57.662Z,31.10
2019-02-08T03:24:35.884Z,30.90
2019-02-08T03:27:12.772Z,30.90
2019-02-08T03:29:49.659Z,30.80
2019-02-08T03:32:27.052Z,30.60
2019-02-08T03:35:03.975Z,30.50
2019-02-08T03:37:45.990Z,30.40
2019-02-08T03:40:25.938Z,30.30
2019-02-08T03:43:02.822Z,30.00
2019-02-08T03:45:42.963Z,30.50
2019-02-08T03:48:20.385Z,30.00
2019-02-08T03:50:57.582Z,30.10
2019-02-08T03:53:34.956Z,29.90
2019-02-08T04:01:20.822Z,29.70
2019-02-08T04:03:57.819Z,29.70
2019-02-08T04:06:34.715Z,29.70
2019-02-08T04:11:48.670Z,30.50
2019-02-08T04:14:25.570Z,30.00
2019-02-08T04:17:02.608Z,31.10
2019-02-08T04:19:39.481Z,31.00
2019-02-08T04:22:16.375Z,30.80
2019-02-08T04:24:53.314Z,30.80
2019-02-08T04:27:30.212Z,30.80
2019-02-08T04:30:07.230Z,31.10
2019-02-08T04:32:45.939Z,31.40
2019-02-08T04:35:21.138Z,31.50
2019-02-08T04:37:59.624Z,31.60
2019-02-08T04:40:37.352Z,31.70
2019-02-08T04:43:14.197Z,31.70
2019-02-08T04:45:52.357Z,32.00
2019-02-08T04:48:31.599Z,31.90
2019-02-08T05:11:48.269Z,32.70
2019-02-08T05:16:59.601Z,31.70
2019-02-08T05:24:46.142Z,31.40
2019-02-08T05:27:23.407Z,31.60
2019-02-08T05:30:00.328Z,31.40
2019-02-08T05:32:37.301Z,31.60
2019-02-08T05:35:14.398Z,32.10
2019-02-08T05:37:51.287Z,31.90
2019-02-08T05:40:28.169Z,31.90
2019-02-08T05:43:06.063Z,32.20
2019-02-08T05:48:17.361Z,31.90
2019-02-08T05:50:54.335Z,32.50
2019-02-08T05:53:31.235Z,31.90
2019-02-08T05:56:09.125Z,31.40
2019-02-08T05:58:46.032Z,31.00
2019-02-08T06:01:22.920Z,30.40
2019-02-08T06:04:00.142Z,30.30
2019-02-08T06:06:37.074Z,30.00
2019-02-08T06:09:15.541Z,29.80
2019-02-08T06:29:54.501Z,29.10
2019-02-08T06:40:17.642Z,28.90
2019-02-08T06:42:55.626Z,28.80
2019-02-08T06:45:32.506Z,28.70
2019-02-08T06:48:09.378Z,28.70
2019-02-08T06:50:46.265Z,28.60
2019-02-08T06:53:23.105Z,28.60
2019-02-08T06:56:00.210Z,28.50
2019-02-08T06:58:54.694Z,28.70
2019-02-08T07:01:49.523Z,28.60
2019-02-08T07:04:46.653Z,28.30
2019-02-08T07:07:38.247Z,28.30
2019-02-08T07:10:35.252Z,28.30
2019-02-08T07:13:32.424Z,28.30
2019-02-08T07:16:26.668Z,28.40
2019-02-08T07:19:20.786Z,28.40
2019-02-08T07:22:21.769Z,28.40
2019-02-08T07:25:18.624Z,28.30
2019-02-08T07:31:01.127Z,27.60
2019-02-08T07:33:58.342Z,27.30
2019-02-08T07:36:45.557Z,26.80
2019-02-08T07:39:38.400Z,25.80
2019-02-08T07:42:26.343Z,25.50
2019-02-08T07:54:14.969Z,23.70
2019-02-08T07:57:15.132Z,23.70
2019-02-08T08:11:40.414Z,23.70
2019-02-08T08:26:09.900Z,23.80
2019-02-08T08:32:04.542Z,21.70
2019-02-08T08:34:56.064Z,21.80
2019-02-08T08:58:26.762Z,22.40
2019-02-08T09:07:15.909Z,22.70
2019-02-08T09:13:14.557Z,23.30
2019-02-08T09:16:10.713Z,23.30
2019-02-08T09:54:32.585Z,23.80
2019-02-08T10:06:25.106Z,23.70
2019-02-08T10:12:27.069Z,24.80
2019-02-08T11:08:11.118Z,23.30
2019-02-08T11:30:00.998Z,23.80
2019-02-08T12:17:03.537Z,22.40
2019-02-08T12:19:40.378Z,22.70
2019-02-08T12:22:17.264Z,23.10
2019-02-08T12:24:54.138Z,22.50
2019-02-08T12:27:31.052Z,22.90
2019-02-08T12:30:07.865Z,23.40
2019-02-08T12:32:44.627Z,23.30
2019-02-08T12:35:23.034Z,23.30
2019-02-08T12:37:59.225Z,23.00
2019-02-08T12:40:35.594Z,22.70
2019-02-08T12:43:12.535Z,22.40
2019-02-08T12:45:49.226Z,23.00
2019-02-08T12:48:26.016Z,22.40
2019-02-08T12:53:37.047Z,22.40
2019-02-08T12:56:13.714Z,22.80
2019-02-08T13:01:24.677Z,23.00
2019-02-08T13:04:01.368Z,22.30
2019-02-08T13:06:38.067Z,22.40
2019-02-08T13:09:17.432Z,22.20
2019-02-08T13:11:54.152Z,22.70
2019-02-08T13:14:30.908Z,22.80
2019-02-08T13:17:07.605Z,22.90
2019-02-08T13:19:44.472Z,22.50
2019-02-08T13:22:21.205Z,22.50
2019-02-08T13:24:57.984Z,22.70
2019-02-08T13:27:34.683Z,22.50
2019-02-08T13:30:13.111Z,22.70
2019-02-08T13:32:49.794Z,23.50
2019-02-08T13:35:26.562Z,22.40
2019-02-08T13:38:03.206Z,23.40
2019-02-08T13:40:39.853Z,22.90
2019-02-08T13:43:17.816Z,23.40
2019-02-08T13:45:54.561Z,22.60
2019-02-08T13:48:31.308Z,23.30
2019-02-08T13:51:08.063Z,22.90
2019-02-08T13:53:44.823Z,22.80
2019-02-08T13:56:21.586Z,23.20
2019-02-08T13:58:58.281Z,23.00
2019-02-08T14:01:34.939Z,22.70
2019-02-08T14:04:11.824Z,20.30
2019-02-08T14:06:48.566Z,22.90
2019-02-08T14:09:25.288Z,22.90
2019-02-08T14:12:02.062Z,22.80
2019-02-08T14:14:38.713Z,23.30
2019-02-08T14:17:15.367Z,23.10
2019-02-08T14:19:52.078Z,21.90
2019-02-08T14:22:28.724Z,22.60
2019-02-08T14:25:05.470Z,23.50
2019-02-08T14:30:29.397Z,22.90
2019-02-08T14:35:40.396Z,22.60
2019-02-08T14:38:21.235Z,23.30
2019-02-08T14:40:57.844Z,22.90
2019-02-08T14:43:34.606Z,23.00
2019-02-08T14:46:11.278Z,23.50
2019-02-08T14:51:14.133Z,23.60
2019-02-08T14:53:50.806Z,23.10
2019-02-08T14:56:27.531Z,23.90
2019-02-08T14:59:04.256Z,23.50
2019-02-08T15:01:40.908Z,22.90
2019-02-08T15:04:17.512Z,23.60
2019-02-08T15:06:54.227Z,23.50
2019-02-08T15:12:05.225Z,23.80
2019-02-08T15:14:41.934Z,23.30
2019-02-08T15:19:52.983Z,23.30
2019-02-08T15:22:31.041Z,23.10
2019-02-08T15:25:07.775Z,23.80
2019-02-08T15:27:44.503Z,23.50
2019-02-08T15:30:23.690Z,23.10
2019-02-08T15:33:00.470Z,23.50
2019-02-08T15:35:37.353Z,23.30
2019-02-08T15:38:13.841Z,23.50
2019-02-08T15:40:52.914Z,23.10
2019-02-08T15:43:30.857Z,23.40
2019-02-08T15:46:09.808Z,23.10
2019-02-08T15:51:21.618Z,23.60
2019-02-08T15:53:58.411Z,23.50
2019-02-08T15:56:35.137Z,23.50
2019-02-08T15:59:11.832Z,23.50
2019-02-08T16:01:49.961Z,23.20
2019-02-08T16:04:26.362Z,23.10
2019-02-08T16:07:03.053Z,23.30
2019-02-08T16:09:39.849Z,23.50
2019-02-08T16:12:16.457Z,23.40
2019-02-08T16:14:53.113Z,23.60
2019-02-08T16:17:32.557Z,23.20
2019-02-08T16:20:09.415Z,23.50
2019-02-08T16:22:46.046Z,23.00
2019-02-08T16:27:57.116Z,23.10
2019-02-08T16:30:35.478Z,23.30
2019-02-08T16:33:12.395Z,23.00
2019-02-08T16:35:49.118Z,23.10
2019-02-08T16:38:25.782Z,23.00
2019-02-08T16:41:21.668Z,23.30
2019-02-08T16:43:58.374Z,22.80
2019-02-08T16:46:35.198Z,23.20
2019-02-08T16:49:11.872Z,23.10
2019-02-08T16:51:49.280Z,22.80
2019-02-08T16:54:25.931Z,23.20
2019-02-08T16:57:02.677Z,23.80
2019-02-08T17:02:13.635Z,23.80
2019-02-08T17:04:50.312Z,23.00
2019-02-08T17:07:27.055Z,23.10
2019-02-08T17:10:05.977Z,23.00
2019-02-08T17:15:19.255Z,23.00
2019-02-08T17:17:55.908Z,23.40
2019-02-08T17:20:43.587Z,23.10
2019-02-08T17:23:20.235Z,23.30
2019-02-08T17:25:56.957Z,23.50
2019-02-08T17:28:33.732Z,22.80
2019-02-08T17:31:10.452Z,23.30
2019-02-08T17:33:47.259Z,23.00
2019-02-08T17:36:23.967Z,23.00
2019-02-08T17:39:00.751Z,23.20
2019-02-08T17:41:37.437Z,23.00
2019-02-08T17:44:14.449Z,22.90
2019-02-08T17:46:51.096Z,23.10
2019-02-08T17:49:27.747Z,22.80
2019-02-08T17:52:04.479Z,22.70
2019-02-08T17:54:41.242Z,23.30
2019-02-08T17:57:18.841Z,22.80
2019-02-08T17:59:55.576Z,23.00
2019-02-08T18:06:12.823Z,22.50
2019-02-08T18:11:23.955Z,22.60
2019-02-08T18:21:43.882Z,22.90
2019-02-08T18:24:20.649Z,23.10
2019-02-08T18:26:58.138Z,23.00
2019-02-08T18:29:34.820Z,22.90
2019-02-08T18:32:11.520Z,22.80
2019-02-08T18:34:47.924Z,23.30
2019-02-08T18:37:24.873Z,23.50
2019-02-08T18:40:01.661Z,22.80
2019-02-08T18:42:38.404Z,22.60
2019-02-08T18:47:50.154Z,22.90
2019-02-08T18:50:32.134Z,22.50
2019-02-08T18:53:08.891Z,22.80
2019-02-08T18:55:45.602Z,22.80
2019-02-08T19:00:57.305Z,22.90
2019-02-08T19:03:34.125Z,22.70
2019-02-08T19:06:11.335Z,22.60
2019-02-08T19:08:48.060Z,22.90
2019-02-08T19:11:24.776Z,22.90
2019-02-08T19:14:03.480Z,22.80
2019-02-08T19:16:41.540Z,22.90
2019-02-08T19:19:18.211Z,22.40
2019-02-08T19:21:54.900Z,22.60
2019-02-08T19:24:32.908Z,22.80
2019-02-08T19:27:09.676Z,23.10
2019-02-08T19:29:46.423Z,22.70
2019-02-08T19:32:23.132Z,22.60
2019-02-08T19:34:59.734Z,22.90
2019-02-08T19:37:36.491Z,23.00
2019-02-08T19:40:15.085Z,23.00
2019-02-08T19:45:26.216Z,23.10
2019-02-08T19:48:02.899Z,23.10
2019-02-08T19:50:41.656Z,22.80
2019-02-08T19:55:52.760Z,23.00
2019-02-08T19:58:34.330Z,23.00
2019-02-08T20:01:07.393Z,22.90
2019-02-08T20:03:44.232Z,22.90
2019-02-08T20:06:20.989Z,23.60
2019-02-08T20:08:57.648Z,22.90
2019-02-08T20:11:34.295Z,22.90
2019-02-08T20:14:11.027Z,23.10
2019-02-08T20:16:47.954Z,23.70
2019-02-08T20:19:24.621Z,23.00
2019-02-08T20:27:10.298Z,23.00
2019-02-08T20:29:47.090Z,23.70
2019-02-08T20:32:23.847Z,23.10
2019-02-08T20:35:00.551Z,22.70
2019-02-08T20:37:37.199Z,23.20
2019-02-08T20:40:15.691Z,23.30
2019-02-08T20:42:52.383Z,23.20
2019-02-08T20:45:30.992Z,23.50
2019-02-08T20:50:43.187Z,22.70
2019-02-08T20:53:19.948Z,23.30
2019-02-08T20:55:57.376Z,23.20
2019-02-08T21:01:08.696Z,23.10
2019-02-08T21:03:45.366Z,23.10
2019-02-08T21:06:22.087Z,22.80
2019-02-08T21:08:59.153Z,23.20
2019-02-08T21:11:35.908Z,23.20
2019-02-08T21:14:12.676Z,22.60
2019-02-08T21:16:49.349Z,23.10
2019-02-08T21:19:26.119Z,23.10
2019-02-08T21:24:37.189Z,23.30
2019-02-08T21:29:48.338Z,23.50
2019-02-08T21:32:25.040Z,23.30
2019-02-08T21:37:36.244Z,23.40
2019-02-08T21:40:14.611Z,23.80
2019-02-08T21:42:51.336Z,23.80
2019-02-08T21:45:31.450Z,23.60
2019-02-08T21:48:08.267Z,23.70
2019-02-08T21:50:46.316Z,24.20
2019-02-08T21:55:57.407Z,23.90
2019-02-08T21:58:34.575Z,23.90
2019-02-08T22:06:20.106Z,24.80
2019-02-08T22:11:32.482Z,24.70
2019-02-08T22:14:09.292Z,24.60
2019-02-08T22:16:46.047Z,25.00
2019-02-08T22:19:24.657Z,25.00
2019-02-08T22:22:01.370Z,25.30
2019-02-08T22:24:38.099Z,25.10
2019-02-08T22:27:14.840Z,25.10
2019-02-08T22:32:25.896Z,25.50
2019-02-08T22:35:02.583Z,25.10
2019-02-08T22:37:39.303Z,25.20
2019-02-08T22:45:28.540Z,25.70
2019-02-08T22:50:39.585Z,25.90
2019-02-08T22:53:16.749Z,25.90
2019-02-08T22:55:53.461Z,25.90
2019-02-08T22:58:30.381Z,25.90
2019-02-08T23:01:30.640Z,25.90
2019-02-08T23:04:09.363Z,26.00
2019-02-08T23:06:46.095Z,26.90
2019-02-08T23:09:29.156Z,26.10
2019-02-08T23:12:05.963Z,26.30
2019-02-08T23:14:42.888Z,26.30
2019-02-08T23:17:19.557Z,26.40
2019-02-08T23:25:06.427Z,26.90
2019-02-08T23:27:43.236Z,26.90
2019-02-08T23:30:19.978Z,27.00
2019-02-08T23:32:56.736Z,26.90
2019-02-08T23:35:33.471Z,26.90
2019-02-08T23:38:11.497Z,26.70
2019-02-08T23:40:48.334Z,26.70
2019-02-08T23:43:25.079Z,27.00
2019-02-08T23:46:01.797Z,27.10
2019-02-08T23:48:38.538Z,27.10
2019-02-08T23:53:49.683Z,27.20
2019-02-08T23:59:00.886Z,27.50
